sensor_id;sensor_type;location;lat;lon;timestamp;P1;durP1;ratioP1;P2;durP2;ratioP2
30647;SDS011;17683;53.360;9.736;2022-08-21T00:01:25;2.92;;;1.60;;
30647;SDS011;17683;53.360;9.736;2022-08-21T00:03:53;3.47;;;1.80;;
30647;SDS011;17683;53.360;9.736;2022-08-21T00:06:20;3.13;;;1.60;;
30647;SDS011;17683;53.360;9.736;2022-08-21T00:08:48;5.63;;;1.55;;
30647;SDS011;17683;53.360;9.736;2022-08-21T00:11:15;6.18;;;1.92;;
30647;SDS011;17683;53.360;9.736;2022-08-21T00:13:41;3.08;;;1.70;;
30647;SDS011;17683;53.360;9.736;2022-08-21T00:16:07;3.60;;;1.63;;
30647;SDS011;17683;53.360;9.736;2022-08-21T00:18:33;2.63;;;1.30;;
30647;SDS011;17683;53.360;9.736;2022-08-21T00:20:59;4.70;;;2.20;;
30647;SDS011;17683;53.360;9.736;2022-08-21T00:23:25;2.90;;;1.45;;
30647;SDS011;17683;53.360;9.736;2022-08-21T00:25:51;3.55;;;1.50;;
30647;SDS011;17683;53.360;9.736;2022-08-21T00:28:16;3.83;;;1.75;;
30647;SDS011;17683;53.360;9.736;2022-08-21T00:30:43;4.75;;;2.17;;
30647;SDS011;17683;53.360;9.736;2022-08-21T00:33:10;8.27;;;2.13;;
30647;SDS011;17683;53.360;9.736;2022-08-21T00:35:38;4.45;;;1.85;;
30647;SDS011;17683;53.360;9.736;2022-08-21T00:38:06;5.00;;;1.75;;
30647;SDS011;17683;53.360;9.736;2022-08-21T00:40:36;4.13;;;1.60;;
30647;SDS011;17683;53.360;9.736;2022-08-21T00:43:05;3.38;;;1.55;;
30647;SDS011;17683;53.360;9.736;2022-08-21T00:45:33;4.32;;;1.70;;
30647;SDS011;17683;53.360;9.736;2022-08-21T00:47:59;3.03;;;1.77;;
30647;SDS011;17683;53.360;9.736;2022-08-21T00:50:26;5.78;;;1.80;;
30647;SDS011;17683;53.360;9.736;2022-08-21T00:52:56;1.83;;;1.33;;
30647;SDS011;17683;53.360;9.736;2022-08-21T00:55:23;3.83;;;1.70;;
30647;SDS011;17683;53.360;9.736;2022-08-21T00:57:51;5.32;;;1.60;;
30647;SDS011;17683;53.360;9.736;2022-08-21T01:00:21;6.97;;;1.75;;
30647;SDS011;17683;53.360;9.736;2022-08-21T01:02:54;6.90;;;1.70;;
30647;SDS011;17683;53.360;9.736;2022-08-21T01:05:21;4.55;;;1.77;;
30647;SDS011;17683;53.360;9.736;2022-08-21T01:07:46;3.83;;;1.80;;
30647;SDS011;17683;53.360;9.736;2022-08-21T01:10:13;4.18;;;1.88;;
30647;SDS011;17683;53.360;9.736;2022-08-21T01:12:39;6.85;;;2.05;;
30647;SDS011;17683;53.360;9.736;2022-08-21T01:15:06;2.50;;;1.52;;
30647;SDS011;17683;53.360;9.736;2022-08-21T01:17:33;2.25;;;1.50;;
30647;SDS011;17683;53.360;9.736;2022-08-21T01:20:01;6.03;;;1.80;;
30647;SDS011;17683;53.360;9.736;2022-08-21T01:22:31;3.33;;;1.80;;
30647;SDS011;17683;53.360;9.736;2022-08-21T01:24:57;4.65;;;1.90;;
30647;SDS011;17683;53.360;9.736;2022-08-21T01:27:22;4.30;;;1.85;;
30647;SDS011;17683;53.360;9.736;2022-08-21T01:29:51;2.15;;;1.42;;
30647;SDS011;17683;53.360;9.736;2022-08-21T01:32:34;5.95;;;1.90;;
30647;SDS011;17683;53.360;9.736;2022-08-21T01:35:00;2.38;;;1.38;;
30647;SDS011;17683;53.360;9.736;2022-08-21T01:37:26;4.78;;;1.60;;
30647;SDS011;17683;53.360;9.736;2022-08-21T01:39:52;5.00;;;2.00;;
30647;SDS011;17683;53.360;9.736;2022-08-21T01:42:18;2.80;;;1.60;;
30647;SDS011;17683;53.360;9.736;2022-08-21T01:44:44;5.35;;;2.22;;
30647;SDS011;17683;53.360;9.736;2022-08-21T01:47:11;4.75;;;2.03;;
30647;SDS011;17683;53.360;9.736;2022-08-21T01:49:38;7.68;;;2.13;;
30647;SDS011;17683;53.360;9.736;2022-08-21T01:52:05;4.43;;;2.55;;
30647;SDS011;17683;53.360;9.736;2022-08-21T01:54:31;5.30;;;1.75;;
30647;SDS011;17683;53.360;9.736;2022-08-21T01:56:58;4.63;;;1.83;;
30647;SDS011;17683;53.360;9.736;2022-08-21T01:59:24;4.82;;;2.10;;
30647;SDS011;17683;53.360;9.736;2022-08-21T02:01:51;4.38;;;1.58;;
30647;SDS011;17683;53.360;9.736;2022-08-21T02:04:19;5.75;;;1.77;;
30647;SDS011;17683;53.360;9.736;2022-08-21T02:06:45;3.15;;;1.75;;
30647;SDS011;17683;53.360;9.736;2022-08-21T02:09:12;2.22;;;1.70;;
30647;SDS011;17683;53.360;9.736;2022-08-21T02:11:39;5.00;;;2.22;;
30647;SDS011;17683;53.360;9.736;2022-08-21T02:14:09;2.80;;;1.98;;
30647;SDS011;17683;53.360;9.736;2022-08-21T02:16:36;3.10;;;1.77;;
30647;SDS011;17683;53.360;9.736;2022-08-21T02:19:03;3.33;;;1.83;;
30647;SDS011;17683;53.360;9.736;2022-08-21T02:21:29;6.28;;;2.13;;
30647;SDS011;17683;53.360;9.736;2022-08-21T02:23:55;3.88;;;2.15;;
30647;SDS011;17683;53.360;9.736;2022-08-21T02:26:21;3.97;;;1.90;;
30647;SDS011;17683;53.360;9.736;2022-08-21T02:28:47;3.95;;;2.03;;
30647;SDS011;17683;53.360;9.736;2022-08-21T02:31:13;3.05;;;1.60;;
30647;SDS011;17683;53.360;9.736;2022-08-21T02:33:39;10.73;;;2.08;;
30647;SDS011;17683;53.360;9.736;2022-08-21T02:36:05;2.90;;;1.90;;
30647;SDS011;17683;53.360;9.736;2022-08-21T02:38:33;4.32;;;1.80;;
30647;SDS011;17683;53.360;9.736;2022-08-21T02:41:02;6.20;;;2.35;;
30647;SDS011;17683;53.360;9.736;2022-08-21T02:43:30;4.03;;;2.00;;
30647;SDS011;17683;53.360;9.736;2022-08-21T02:45:57;3.83;;;2.17;;
30647;SDS011;17683;53.360;9.736;2022-08-21T02:48:24;4.28;;;2.13;;
30647;SDS011;17683;53.360;9.736;2022-08-21T02:50:54;4.05;;;2.30;;
30647;SDS011;17683;53.360;9.736;2022-08-21T02:53:24;3.25;;;1.90;;
30647;SDS011;17683;53.360;9.736;2022-08-21T02:55:51;3.90;;;2.30;;
30647;SDS011;17683;53.360;9.736;2022-08-21T02:58:20;4.07;;;2.00;;
30647;SDS011;17683;53.360;9.736;2022-08-21T03:00:49;3.50;;;1.98;;
30647;SDS011;17683;53.360;9.736;2022-08-21T03:03:16;3.30;;;2.10;;
30647;SDS011;17683;53.360;9.736;2022-08-21T03:05:42;4.07;;;2.30;;
30647;SDS011;17683;53.360;9.736;2022-08-21T03:08:09;3.47;;;1.83;;
30647;SDS011;17683;53.360;9.736;2022-08-21T03:10:37;3.05;;;2.00;;
30647;SDS011;17683;53.360;9.736;2022-08-21T03:13:05;6.50;;;1.98;;
30647;SDS011;17683;53.360;9.736;2022-08-21T03:15:31;4.20;;;2.38;;
30647;SDS011;17683;53.360;9.736;2022-08-21T03:17:57;4.57;;;2.20;;
30647;SDS011;17683;53.360;9.736;2022-08-21T03:20:24;3.33;;;2.20;;
30647;SDS011;17683;53.360;9.736;2022-08-21T03:22:52;4.93;;;2.50;;
30647;SDS011;17683;53.360;9.736;2022-08-21T03:25:18;4.25;;;2.05;;
30647;SDS011;17683;53.360;9.736;2022-08-21T03:27:45;3.13;;;2.38;;
30647;SDS011;17683;53.360;9.736;2022-08-21T03:30:13;5.22;;;2.08;;
30647;SDS011;17683;53.360;9.736;2022-08-21T03:32:40;1.83;;;1.60;;
30647;SDS011;17683;53.360;9.736;2022-08-21T03:35:06;2.92;;;1.70;;
30647;SDS011;17683;53.360;9.736;2022-08-21T03:37:32;4.75;;;2.33;;
30647;SDS011;17683;53.360;9.736;2022-08-21T03:39:58;3.35;;;1.55;;
30647;SDS011;17683;53.360;9.736;2022-08-21T03:42:23;3.22;;;2.00;;
30647;SDS011;17683;53.360;9.736;2022-08-21T03:44:49;3.08;;;2.20;;
30647;SDS011;17683;53.360;9.736;2022-08-21T03:47:15;3.63;;;1.88;;
30647;SDS011;17683;53.360;9.736;2022-08-21T03:49:41;9.25;;;2.38;;
30647;SDS011;17683;53.360;9.736;2022-08-21T03:52:07;24.27;;;4.55;;
30647;SDS011;17683;53.360;9.736;2022-08-21T03:54:32;5.22;;;1.98;;
30647;SDS011;17683;53.360;9.736;2022-08-21T03:56:58;13.45;;;2.53;;
30647;SDS011;17683;53.360;9.736;2022-08-21T03:59:24;3.17;;;1.77;;
30647;SDS011;17683;53.360;9.736;2022-08-21T04:01:51;8.93;;;3.10;;
30647;SDS011;17683;53.360;9.736;2022-08-21T04:04:20;3.30;;;1.88;;
30647;SDS011;17683;53.360;9.736;2022-08-21T04:06:47;6.75;;;2.65;;
30647;SDS011;17683;53.360;9.736;2022-08-21T04:09:12;7.00;;;1.88;;
30647;SDS011;17683;53.360;9.736;2022-08-21T04:11:38;4.10;;;2.17;;
30647;SDS011;17683;53.360;9.736;2022-08-21T04:14:04;4.68;;;2.50;;
30647;SDS011;17683;53.360;9.736;2022-08-21T04:16:30;2.80;;;1.88;;
30647;SDS011;17683;53.360;9.736;2022-08-21T04:18:56;3.85;;;1.90;;
30647;SDS011;17683;53.360;9.736;2022-08-21T04:21:21;3.28;;;1.88;;
30647;SDS011;17683;53.360;9.736;2022-08-21T04:23:48;3.58;;;2.15;;
30647;SDS011;17683;53.360;9.736;2022-08-21T04:26:14;4.00;;;1.90;;
30647;SDS011;17683;53.360;9.736;2022-08-21T04:28:40;5.68;;;2.20;;
30647;SDS011;17683;53.360;9.736;2022-08-21T04:31:06;6.70;;;2.25;;
30647;SDS011;17683;53.360;9.736;2022-08-21T04:33:33;4.10;;;2.38;;
30647;SDS011;17683;53.360;9.736;2022-08-21T04:35:59;3.70;;;2.38;;
30647;SDS011;17683;53.360;9.736;2022-08-21T04:38:25;2.42;;;2.00;;
30647;SDS011;17683;53.360;9.736;2022-08-21T04:40:51;7.25;;;2.13;;
30647;SDS011;17683;53.360;9.736;2022-08-21T04:43:17;2.20;;;1.98;;
30647;SDS011;17683;53.360;9.736;2022-08-21T04:45:45;4.53;;;2.13;;
30647;SDS011;17683;53.360;9.736;2022-08-21T04:48:13;7.90;;;1.80;;
30647;SDS011;17683;53.360;9.736;2022-08-21T04:50:54;3.90;;;2.13;;
30647;SDS011;17683;53.360;9.736;2022-08-21T04:55:56;4.15;;;2.17;;
30647;SDS011;17683;53.360;9.736;2022-08-21T04:58:29;4.05;;;2.15;;
30647;SDS011;17683;53.360;9.736;2022-08-21T05:00:58;3.28;;;1.85;;
30647;SDS011;17683;53.360;9.736;2022-08-21T05:03:26;5.43;;;2.33;;
30647;SDS011;17683;53.360;9.736;2022-08-21T05:05:53;3.45;;;2.00;;
30647;SDS011;17683;53.360;9.736;2022-08-21T05:08:20;6.63;;;2.47;;
30647;SDS011;17683;53.360;9.736;2022-08-21T05:10:48;4.20;;;2.15;;
30647;SDS011;17683;53.360;9.736;2022-08-21T05:13:14;4.97;;;2.22;;
30647;SDS011;17683;53.360;9.736;2022-08-21T05:15:40;5.72;;;2.22;;
30647;SDS011;17683;53.360;9.736;2022-08-21T05:18:07;4.00;;;2.40;;
30647;SDS011;17683;53.360;9.736;2022-08-21T05:20:33;5.05;;;3.00;;
30647;SDS011;17683;53.360;9.736;2022-08-21T05:23:00;5.88;;;2.55;;
30647;SDS011;17683;53.360;9.736;2022-08-21T05:25:26;5.82;;;2.80;;
30647;SDS011;17683;53.360;9.736;2022-08-21T05:27:52;6.22;;;2.53;;
30647;SDS011;17683;53.360;9.736;2022-08-21T05:30:18;4.00;;;2.35;;
30647;SDS011;17683;53.360;9.736;2022-08-21T05:32:45;6.47;;;2.85;;
30647;SDS011;17683;53.360;9.736;2022-08-21T05:35:12;4.47;;;2.53;;
30647;SDS011;17683;53.360;9.736;2022-08-21T05:37:38;7.90;;;2.88;;
30647;SDS011;17683;53.360;9.736;2022-08-21T05:40:04;5.03;;;3.03;;
30647;SDS011;17683;53.360;9.736;2022-08-21T05:42:31;5.88;;;2.80;;
30647;SDS011;17683;53.360;9.736;2022-08-21T05:44:57;6.32;;;2.83;;
30647;SDS011;17683;53.360;9.736;2022-08-21T05:47:22;5.30;;;3.05;;
30647;SDS011;17683;53.360;9.736;2022-08-21T05:49:48;8.18;;;3.33;;
30647;SDS011;17683;53.360;9.736;2022-08-21T05:52:18;3.20;;;2.38;;
30647;SDS011;17683;53.360;9.736;2022-08-21T05:54:45;4.30;;;2.90;;
30647;SDS011;17683;53.360;9.736;2022-08-21T05:57:10;5.10;;;3.03;;
30647;SDS011;17683;53.360;9.736;2022-08-21T05:59:36;3.83;;;2.40;;
30647;SDS011;17683;53.360;9.736;2022-08-21T06:02:02;5.97;;;2.95;;
30647;SDS011;17683;53.360;9.736;2022-08-21T06:04:28;3.15;;;2.40;;
30647;SDS011;17683;53.360;9.736;2022-08-21T06:06:54;3.13;;;2.00;;
30647;SDS011;17683;53.360;9.736;2022-08-21T06:09:20;9.95;;;2.75;;
30647;SDS011;17683;53.360;9.736;2022-08-21T06:11:46;4.43;;;3.08;;
30647;SDS011;17683;53.360;9.736;2022-08-21T06:14:15;7.88;;;2.65;;
30647;SDS011;17683;53.360;9.736;2022-08-21T06:16:41;4.63;;;2.53;;
30647;SDS011;17683;53.360;9.736;2022-08-21T06:19:07;4.32;;;2.42;;
30647;SDS011;17683;53.360;9.736;2022-08-21T06:21:33;5.28;;;2.38;;
30647;SDS011;17683;53.360;9.736;2022-08-21T06:23:58;4.22;;;2.50;;
30647;SDS011;17683;53.360;9.736;2022-08-21T06:26:24;9.00;;;2.97;;
30647;SDS011;17683;53.360;9.736;2022-08-21T06:28:50;5.10;;;2.97;;
30647;SDS011;17683;53.360;9.736;2022-08-21T06:31:21;9.88;;;2.90;;
30647;SDS011;17683;53.360;9.736;2022-08-21T06:33:47;5.50;;;2.33;;
30647;SDS011;17683;53.360;9.736;2022-08-21T06:36:13;5.50;;;2.45;;
30647;SDS011;17683;53.360;9.736;2022-08-21T06:38:40;4.85;;;2.13;;
30647;SDS011;17683;53.360;9.736;2022-08-21T06:41:06;4.38;;;1.92;;
30647;SDS011;17683;53.360;9.736;2022-08-21T06:43:32;4.43;;;2.13;;
30647;SDS011;17683;53.360;9.736;2022-08-21T06:45:58;5.75;;;1.95;;
30647;SDS011;17683;53.360;9.736;2022-08-21T06:48:24;6.03;;;2.65;;
30647;SDS011;17683;53.360;9.736;2022-08-21T06:50:50;5.57;;;2.20;;
30647;SDS011;17683;53.360;9.736;2022-08-21T06:53:17;4.35;;;2.25;;
30647;SDS011;17683;53.360;9.736;2022-08-21T06:55:44;3.58;;;1.70;;
30647;SDS011;17683;53.360;9.736;2022-08-21T06:58:10;4.65;;;1.95;;
30647;SDS011;17683;53.360;9.736;2022-08-21T07:00:39;5.35;;;2.10;;
30647;SDS011;17683;53.360;9.736;2022-08-21T07:03:06;7.25;;;2.38;;
30647;SDS011;17683;53.360;9.736;2022-08-21T07:05:32;4.45;;;2.10;;
30647;SDS011;17683;53.360;9.736;2022-08-21T07:07:58;5.07;;;2.63;;
30647;SDS011;17683;53.360;9.736;2022-08-21T07:10:24;3.97;;;2.25;;
30647;SDS011;17683;53.360;9.736;2022-08-21T07:12:50;5.30;;;1.85;;
30647;SDS011;17683;53.360;9.736;2022-08-21T07:15:18;3.60;;;1.70;;
30647;SDS011;17683;53.360;9.736;2022-08-21T07:17:44;6.03;;;1.95;;
30647;SDS011;17683;53.360;9.736;2022-08-21T07:20:10;6.18;;;2.05;;
30647;SDS011;17683;53.360;9.736;2022-08-21T07:22:36;4.45;;;1.67;;
30647;SDS011;17683;53.360;9.736;2022-08-21T07:25:03;5.60;;;1.90;;
30647;SDS011;17683;53.360;9.736;2022-08-21T07:27:30;4.10;;;1.73;;
30647;SDS011;17683;53.360;9.736;2022-08-21T07:29:56;6.22;;;1.83;;
30647;SDS011;17683;53.360;9.736;2022-08-21T07:32:22;7.95;;;2.30;;
30647;SDS011;17683;53.360;9.736;2022-08-21T07:34:48;5.47;;;2.40;;
30647;SDS011;17683;53.360;9.736;2022-08-21T07:37:14;5.40;;;1.70;;
30647;SDS011;17683;53.360;9.736;2022-08-21T07:39:40;7.30;;;2.20;;
30647;SDS011;17683;53.360;9.736;2022-08-21T07:42:05;3.80;;;1.90;;
30647;SDS011;17683;53.360;9.736;2022-08-21T07:44:31;6.70;;;2.10;;
30647;SDS011;17683;53.360;9.736;2022-08-21T07:46:59;6.50;;;2.30;;
30647;SDS011;17683;53.360;9.736;2022-08-21T07:49:26;8.05;;;3.13;;
30647;SDS011;17683;53.360;9.736;2022-08-21T07:51:52;6.93;;;1.85;;
30647;SDS011;17683;53.360;9.736;2022-08-21T07:54:18;6.05;;;2.03;;
30647;SDS011;17683;53.360;9.736;2022-08-21T07:56:43;4.75;;;2.33;;
30647;SDS011;17683;53.360;9.736;2022-08-21T07:59:10;3.20;;;1.98;;
30647;SDS011;17683;53.360;9.736;2022-08-21T08:01:36;8.73;;;2.83;;
30647;SDS011;17683;53.360;9.736;2022-08-21T08:04:02;6.53;;;2.53;;
30647;SDS011;17683;53.360;9.736;2022-08-21T08:06:28;7.03;;;2.97;;
30647;SDS011;17683;53.360;9.736;2022-08-21T08:08:55;8.35;;;2.33;;
30647;SDS011;17683;53.360;9.736;2022-08-21T08:11:21;7.60;;;3.00;;
30647;SDS011;17683;53.360;9.736;2022-08-21T08:13:48;9.27;;;2.72;;
30647;SDS011;17683;53.360;9.736;2022-08-21T08:16:15;12.73;;;3.17;;
30647;SDS011;17683;53.360;9.736;2022-08-21T08:18:42;10.13;;;2.53;;
30647;SDS011;17683;53.360;9.736;2022-08-21T08:21:09;8.13;;;2.83;;
30647;SDS011;17683;53.360;9.736;2022-08-21T08:23:35;8.05;;;2.55;;
30647;SDS011;17683;53.360;9.736;2022-08-21T08:26:01;6.88;;;2.65;;
30647;SDS011;17683;53.360;9.736;2022-08-21T08:28:28;8.15;;;2.30;;
30647;SDS011;17683;53.360;9.736;2022-08-21T08:30:55;6.80;;;2.50;;
30647;SDS011;17683;53.360;9.736;2022-08-21T08:33:21;8.10;;;2.80;;
30647;SDS011;17683;53.360;9.736;2022-08-21T08:35:48;6.45;;;2.63;;
30647;SDS011;17683;53.360;9.736;2022-08-21T08:38:16;8.23;;;3.42;;
30647;SDS011;17683;53.360;9.736;2022-08-21T08:43:36;10.32;;;3.20;;
30647;SDS011;17683;53.360;9.736;2022-08-21T08:46:03;7.82;;;2.42;;
30647;SDS011;17683;53.360;9.736;2022-08-21T08:48:39;5.13;;;2.38;;
30647;SDS011;17683;53.360;9.736;2022-08-21T08:51:42;6.65;;;2.60;;
30647;SDS011;17683;53.360;9.736;2022-08-21T08:54:11;9.77;;;2.95;;
30647;SDS011;17683;53.360;9.736;2022-08-21T08:56:42;8.35;;;3.22;;
30647;SDS011;17683;53.360;9.736;2022-08-21T08:59:21;6.07;;;2.38;;
30647;SDS011;17683;53.360;9.736;2022-08-21T09:01:52;4.85;;;2.67;;
30647;SDS011;17683;53.360;9.736;2022-08-21T09:04:21;8.73;;;2.50;;
30647;SDS011;17683;53.360;9.736;2022-08-21T09:06:53;4.78;;;1.85;;
30647;SDS011;17683;53.360;9.736;2022-08-21T09:09:55;14.35;;;3.50;;
30647;SDS011;17683;53.360;9.736;2022-08-21T09:12:33;9.05;;;2.95;;
30647;SDS011;17683;53.360;9.736;2022-08-21T09:15:32;8.93;;;2.97;;
30647;SDS011;17683;53.360;9.736;2022-08-21T09:23:49;9.27;;;3.42;;
30647;SDS011;17683;53.360;9.736;2022-08-21T09:26:52;5.13;;;2.05;;
30647;SDS011;17683;53.360;9.736;2022-08-21T09:29:20;4.68;;;1.75;;
30647;SDS011;17683;53.360;9.736;2022-08-21T09:31:49;7.13;;;2.38;;
30647;SDS011;17683;53.360;9.736;2022-08-21T09:34:23;7.70;;;2.63;;
30647;SDS011;17683;53.360;9.736;2022-08-21T09:36:51;5.18;;;2.53;;
30647;SDS011;17683;53.360;9.736;2022-08-21T09:39:31;7.03;;;2.72;;
30647;SDS011;17683;53.360;9.736;2022-08-21T09:42:07;6.78;;;2.17;;
30647;SDS011;17683;53.360;9.736;2022-08-21T09:44:35;8.32;;;2.60;;
30647;SDS011;17683;53.360;9.736;2022-08-21T09:47:05;6.28;;;2.55;;
30647;SDS011;17683;53.360;9.736;2022-08-21T09:49:33;4.90;;;2.00;;
30647;SDS011;17683;53.360;9.736;2022-08-21T09:52:00;6.30;;;2.05;;
30647;SDS011;17683;53.360;9.736;2022-08-21T09:54:32;6.22;;;2.42;;
30647;SDS011;17683;53.360;9.736;2022-08-21T09:59:52;8.43;;;2.28;;
30647;SDS011;17683;53.360;9.736;2022-08-21T10:02:22;8.85;;;2.00;;
30647;SDS011;17683;53.360;9.736;2022-08-21T10:07:24;5.45;;;1.73;;
30647;SDS011;17683;53.360;9.736;2022-08-21T10:10:12;5.22;;;2.15;;
30647;SDS011;17683;53.360;9.736;2022-08-21T10:18:35;3.40;;;2.00;;
30647;SDS011;17683;53.360;9.736;2022-08-21T10:23:49;6.32;;;2.33;;
30647;SDS011;17683;53.360;9.736;2022-08-21T10:29:30;5.15;;;2.40;;
30647;SDS011;17683;53.360;9.736;2022-08-21T10:34:40;5.75;;;2.05;;
30647;SDS011;17683;53.360;9.736;2022-08-21T10:39:35;4.70;;;2.05;;
30647;SDS011;17683;53.360;9.736;2022-08-21T10:47:22;9.38;;;2.60;;
30647;SDS011;17683;53.360;9.736;2022-08-21T10:50:01;6.72;;;2.20;;
30647;SDS011;17683;53.360;9.736;2022-08-21T10:55:09;10.05;;;2.85;;
30647;SDS011;17683;53.360;9.736;2022-08-21T10:58:01;4.47;;;1.77;;
30647;SDS011;17683;53.360;9.736;2022-08-21T11:00:38;4.22;;;1.67;;
30647;SDS011;17683;53.360;9.736;2022-08-21T11:03:35;5.53;;;2.10;;
30647;SDS011;17683;53.360;9.736;2022-08-21T11:06:09;6.45;;;2.35;;
30647;SDS011;17683;53.360;9.736;2022-08-21T11:08:41;5.75;;;1.95;;
30647;SDS011;17683;53.360;9.736;2022-08-21T11:18:57;3.72;;;1.60;;
30647;SDS011;17683;53.360;9.736;2022-08-21T11:26:47;3.08;;;1.48;;
30647;SDS011;17683;53.360;9.736;2022-08-21T11:29:26;5.38;;;1.95;;
30647;SDS011;17683;53.360;9.736;2022-08-21T11:34:54;4.13;;;1.77;;
30647;SDS011;17683;53.360;9.736;2022-08-21T11:37:35;3.78;;;1.67;;
30647;SDS011;17683;53.360;9.736;2022-08-21T11:43:17;4.85;;;1.65;;
30647;SDS011;17683;53.360;9.736;2022-08-21T11:54:03;5.65;;;1.98;;
30647;SDS011;17683;53.360;9.736;2022-08-21T11:57:03;4.30;;;1.70;;
30647;SDS011;17683;53.360;9.736;2022-08-21T11:59:49;7.78;;;2.13;;
30647;SDS011;17683;53.360;9.736;2022-08-21T12:02:33;3.92;;;2.00;;
30647;SDS011;17683;53.360;9.736;2022-08-21T12:05:03;5.32;;;2.15;;
30647;SDS011;17683;53.360;9.736;2022-08-21T12:10:04;6.00;;;2.03;;
30647;SDS011;17683;53.360;9.736;2022-08-21T12:12:42;2.85;;;1.67;;
30647;SDS011;17683;53.360;9.736;2022-08-21T12:17:57;6.30;;;1.90;;
30647;SDS011;17683;53.360;9.736;2022-08-21T12:20:45;3.03;;;1.42;;
30647;SDS011;17683;53.360;9.736;2022-08-21T12:23:31;4.32;;;2.22;;
30647;SDS011;17683;53.360;9.736;2022-08-21T12:28:42;6.18;;;2.10;;
30647;SDS011;17683;53.360;9.736;2022-08-21T12:31:18;4.38;;;1.80;;
30647;SDS011;17683;53.360;9.736;2022-08-21T12:33:49;4.55;;;1.55;;
30647;SDS011;17683;53.360;9.736;2022-08-21T12:36:22;4.03;;;1.88;;
30647;SDS011;17683;53.360;9.736;2022-08-21T12:39:11;4.45;;;1.33;;
30647;SDS011;17683;53.360;9.736;2022-08-21T12:44:15;3.42;;;1.60;;
30647;SDS011;17683;53.360;9.736;2022-08-21T12:46:56;4.22;;;1.60;;
30647;SDS011;17683;53.360;9.736;2022-08-21T12:49:33;5.53;;;2.15;;
30647;SDS011;17683;53.360;9.736;2022-08-21T12:52:22;4.97;;;2.08;;
30647;SDS011;17683;53.360;9.736;2022-08-21T12:54:49;4.93;;;1.70;;
30647;SDS011;17683;53.360;9.736;2022-08-21T12:57:20;5.40;;;2.17;;
30647;SDS011;17683;53.360;9.736;2022-08-21T12:59:51;2.72;;;1.60;;
30647;SDS011;17683;53.360;9.736;2022-08-21T13:02:30;4.57;;;1.55;;
30647;SDS011;17683;53.360;9.736;2022-08-21T13:04:58;3.65;;;1.55;;
30647;SDS011;17683;53.360;9.736;2022-08-21T13:07:30;3.40;;;1.50;;
30647;SDS011;17683;53.360;9.736;2022-08-21T13:12:26;4.10;;;1.67;;
30647;SDS011;17683;53.360;9.736;2022-08-21T13:14:58;4.78;;;1.50;;
30647;SDS011;17683;53.360;9.736;2022-08-21T13:17:26;6.78;;;1.80;;
30647;SDS011;17683;53.360;9.736;2022-08-21T13:19:57;4.50;;;1.60;;
30647;SDS011;17683;53.360;9.736;2022-08-21T13:22:25;5.68;;;1.92;;
30647;SDS011;17683;53.360;9.736;2022-08-21T13:24:52;6.80;;;1.67;;
30647;SDS011;17683;53.360;9.736;2022-08-21T13:30:05;5.25;;;1.70;;
30647;SDS011;17683;53.360;9.736;2022-08-21T13:32:48;5.85;;;2.13;;
30647;SDS011;17683;53.360;9.736;2022-08-21T13:35:22;4.97;;;1.80;;
30647;SDS011;17683;53.360;9.736;2022-08-21T13:37:53;5.93;;;1.80;;
30647;SDS011;17683;53.360;9.736;2022-08-21T13:40:23;3.50;;;1.70;;
30647;SDS011;17683;53.360;9.736;2022-08-21T13:42:51;5.45;;;1.50;;
30647;SDS011;17683;53.360;9.736;2022-08-21T13:45:30;4.78;;;1.63;;
30647;SDS011;17683;53.360;9.736;2022-08-21T13:47:57;4.28;;;1.60;;
30647;SDS011;17683;53.360;9.736;2022-08-21T13:50:26;4.82;;;1.67;;
30647;SDS011;17683;53.360;9.736;2022-08-21T13:53:02;2.97;;;1.52;;
30647;SDS011;17683;53.360;9.736;2022-08-21T13:55:37;4.30;;;1.30;;
30647;SDS011;17683;53.360;9.736;2022-08-21T13:58:06;3.28;;;1.80;;
30647;SDS011;17683;53.360;9.736;2022-08-21T14:00:34;4.65;;;1.60;;
30647;SDS011;17683;53.360;9.736;2022-08-21T14:06:14;3.58;;;1.75;;
30647;SDS011;17683;53.360;9.736;2022-08-21T14:08:47;4.47;;;1.20;;
30647;SDS011;17683;53.360;9.736;2022-08-21T14:11:19;2.03;;;1.35;;
30647;SDS011;17683;53.360;9.736;2022-08-21T14:13:49;4.72;;;1.63;;
30647;SDS011;17683;53.360;9.736;2022-08-21T14:16:29;2.75;;;1.30;;
30647;SDS011;17683;53.360;9.736;2022-08-21T14:19:09;4.75;;;1.77;;
30647;SDS011;17683;53.360;9.736;2022-08-21T14:21:55;4.75;;;1.40;;
30647;SDS011;17683;53.360;9.736;2022-08-21T14:26:52;4.40;;;1.63;;
30647;SDS011;17683;53.360;9.736;2022-08-21T14:29:33;4.65;;;1.88;;
30647;SDS011;17683;53.360;9.736;2022-08-21T14:32:12;4.30;;;1.67;;
30647;SDS011;17683;53.360;9.736;2022-08-21T14:34:38;4.05;;;1.38;;
30647;SDS011;17683;53.360;9.736;2022-08-21T14:37:04;5.03;;;1.55;;
30647;SDS011;17683;53.360;9.736;2022-08-21T14:39:29;2.45;;;1.45;;
30647;SDS011;17683;53.360;9.736;2022-08-21T14:41:56;6.43;;;1.80;;
30647;SDS011;17683;53.360;9.736;2022-08-21T14:44:22;4.13;;;1.67;;
30647;SDS011;17683;53.360;9.736;2022-08-21T14:46:48;6.10;;;1.55;;
30647;SDS011;17683;53.360;9.736;2022-08-21T14:49:14;6.25;;;1.45;;
30647;SDS011;17683;53.360;9.736;2022-08-21T14:51:40;5.30;;;1.70;;
30647;SDS011;17683;53.360;9.736;2022-08-21T14:54:06;3.85;;;1.48;;
30647;SDS011;17683;53.360;9.736;2022-08-21T14:56:33;3.45;;;1.30;;
30647;SDS011;17683;53.360;9.736;2022-08-21T14:59:04;1.58;;;1.27;;
30647;SDS011;17683;53.360;9.736;2022-08-21T15:01:32;5.35;;;1.83;;
30647;SDS011;17683;53.360;9.736;2022-08-21T15:04:00;4.78;;;1.98;;
30647;SDS011;17683;53.360;9.736;2022-08-21T15:06:26;7.15;;;1.52;;
30647;SDS011;17683;53.360;9.736;2022-08-21T15:08:52;3.67;;;1.73;;
30647;SDS011;17683;53.360;9.736;2022-08-21T15:11:19;4.97;;;2.10;;
30647;SDS011;17683;53.360;9.736;2022-08-21T15:13:46;2.25;;;1.30;;
30647;SDS011;17683;53.360;9.736;2022-08-21T15:16:15;5.20;;;1.88;;
30647;SDS011;17683;53.360;9.736;2022-08-21T15:18:40;4.90;;;1.95;;
30647;SDS011;17683;53.360;9.736;2022-08-21T15:21:07;2.88;;;1.75;;
30647;SDS011;17683;53.360;9.736;2022-08-21T15:23:33;2.55;;;1.48;;
30647;SDS011;17683;53.360;9.736;2022-08-21T15:25:59;3.15;;;1.40;;
30647;SDS011;17683;53.360;9.736;2022-08-21T15:28:25;5.70;;;1.63;;
30647;SDS011;17683;53.360;9.736;2022-08-21T15:30:51;4.50;;;1.65;;
30647;SDS011;17683;53.360;9.736;2022-08-21T15:33:18;3.45;;;1.40;;
30647;SDS011;17683;53.360;9.736;2022-08-21T15:35:43;3.08;;;1.73;;
30647;SDS011;17683;53.360;9.736;2022-08-21T15:38:11;4.72;;;1.80;;
30647;SDS011;17683;53.360;9.736;2022-08-21T15:40:37;2.95;;;1.35;;
30647;SDS011;17683;53.360;9.736;2022-08-21T15:43:04;3.28;;;1.40;;
30647;SDS011;17683;53.360;9.736;2022-08-21T15:45:32;4.93;;;1.42;;
30647;SDS011;17683;53.360;9.736;2022-08-21T15:47:58;2.15;;;1.00;;
30647;SDS011;17683;53.360;9.736;2022-08-21T15:50:24;2.85;;;1.70;;
30647;SDS011;17683;53.360;9.736;2022-08-21T15:52:51;3.97;;;1.73;;
30647;SDS011;17683;53.360;9.736;2022-08-21T15:55:17;2.72;;;1.55;;
30647;SDS011;17683;53.360;9.736;2022-08-21T15:57:43;2.30;;;1.30;;
30647;SDS011;17683;53.360;9.736;2022-08-21T16:00:12;4.00;;;1.40;;
30647;SDS011;17683;53.360;9.736;2022-08-21T16:02:48;4.38;;;1.90;;
30647;SDS011;17683;53.360;9.736;2022-08-21T16:05:17;4.38;;;1.58;;
30647;SDS011;17683;53.360;9.736;2022-08-21T16:07:43;5.13;;;1.40;;
30647;SDS011;17683;53.360;9.736;2022-08-21T16:10:09;2.97;;;1.70;;
30647;SDS011;17683;53.360;9.736;2022-08-21T16:12:47;5.72;;;1.73;;
30647;SDS011;17683;53.360;9.736;2022-08-21T16:15:19;1.90;;;1.30;;
30647;SDS011;17683;53.360;9.736;2022-08-21T16:17:45;4.45;;;1.92;;
30647;SDS011;17683;53.360;9.736;2022-08-21T16:20:16;5.50;;;2.08;;
30647;SDS011;17683;53.360;9.736;2022-08-21T16:22:45;3.58;;;1.80;;
30647;SDS011;17683;53.360;9.736;2022-08-21T16:25:12;3.78;;;1.30;;
30647;SDS011;17683;53.360;9.736;2022-08-21T16:27:39;2.25;;;1.30;;
30647;SDS011;17683;53.360;9.736;2022-08-21T16:30:06;3.65;;;1.35;;